sensor_id;sensor_type;location;lat;lon;timestamp;P1;durP1;ratioP1;P2;durP2;ratioP2
12048;SDS011;6085;49.452;8.502;2022-08-21T00:03:16;4.75;;;3.05;;
12048;SDS011;6085;49.452;8.502;2022-08-21T00:07:18;4.28;;;2.97;;
12048;SDS011;6085;49.452;8.502;2022-08-21T00:11:21;4.63;;;2.83;;
12048;SDS011;6085;49.452;8.502;2022-08-21T00:15:25;3.83;;;3.20;;
12048;SDS011;6085;49.452;8.502;2022-08-21T00:19:29;3.22;;;2.55;;
12048;SDS011;6085;49.452;8.502;2022-08-21T00:23:32;5.22;;;2.80;;
12048;SDS011;6085;49.452;8.502;2022-08-21T00:27:35;4.35;;;3.15;;
12048;SDS011;6085;49.452;8.502;2022-08-21T00:31:38;4.13;;;2.83;;
12048;SDS011;6085;49.452;8.502;2022-08-21T00:35:41;3.42;;;2.90;;
12048;SDS011;6085;49.452;8.502;2022-08-21T00:39:44;4.07;;;2.90;;
12048;SDS011;6085;49.452;8.502;2022-08-21T00:43:47;4.65;;;2.92;;
12048;SDS011;6085;49.452;8.502;2022-08-21T00:47:50;4.28;;;2.60;;
12048;SDS011;6085;49.452;8.502;2022-08-21T00:51:55;3.47;;;3.10;;
12048;SDS011;6085;49.452;8.502;2022-08-21T00:56:00;4.30;;;2.90;;
12048;SDS011;6085;49.452;8.502;2022-08-21T01:00:05;4.32;;;3.42;;
12048;SDS011;6085;49.452;8.502;2022-08-21T01:04:12;4.55;;;3.08;;
12048;SDS011;6085;49.452;8.502;2022-08-21T01:08:15;8.23;;;3.70;;
12048;SDS011;6085;49.452;8.502;2022-08-21T01:12:19;4.13;;;3.08;;
12048;SDS011;6085;49.452;8.502;2022-08-21T01:16:21;3.53;;;2.72;;
12048;SDS011;6085;49.452;8.502;2022-08-21T01:20:24;3.50;;;3.20;;
12048;SDS011;6085;49.452;8.502;2022-08-21T01:24:28;3.58;;;3.20;;
12048;SDS011;6085;49.452;8.502;2022-08-21T01:28:33;4.55;;;3.00;;
12048;SDS011;6085;49.452;8.502;2022-08-21T01:32:38;4.53;;;3.03;;
12048;SDS011;6085;49.452;8.502;2022-08-21T01:36:40;5.05;;;3.10;;
12048;SDS011;6085;49.452;8.502;2022-08-21T01:40:44;3.50;;;3.13;;
12048;SDS011;6085;49.452;8.502;2022-08-21T01:44:46;3.38;;;3.08;;
12048;SDS011;6085;49.452;8.502;2022-08-21T01:48:48;4.05;;;3.28;;
12048;SDS011;6085;49.452;8.502;2022-08-21T01:52:50;4.35;;;3.38;;
12048;SDS011;6085;49.452;8.502;2022-08-21T01:56:53;3.67;;;3.10;;
12048;SDS011;6085;49.452;8.502;2022-08-21T02:00:55;4.20;;;3.47;;
12048;SDS011;6085;49.452;8.502;2022-08-21T02:04:58;4.07;;;3.13;;
12048;SDS011;6085;49.452;8.502;2022-08-21T02:09:00;4.05;;;3.58;;
12048;SDS011;6085;49.452;8.502;2022-08-21T02:13:03;4.22;;;3.67;;
12048;SDS011;6085;49.452;8.502;2022-08-21T02:17:07;5.18;;;3.53;;
12048;SDS011;6085;49.452;8.502;2022-08-21T02:21:09;4.22;;;3.30;;
12048;SDS011;6085;49.452;8.502;2022-08-21T02:25:11;3.72;;;3.08;;
12048;SDS011;6085;49.452;8.502;2022-08-21T02:29:15;3.67;;;3.30;;
12048;SDS011;6085;49.452;8.502;2022-08-21T02:33:17;3.67;;;3.38;;
12048;SDS011;6085;49.452;8.502;2022-08-21T02:37:19;4.75;;;3.42;;
12048;SDS011;6085;49.452;8.502;2022-08-21T02:41:21;4.03;;;3.58;;
12048;SDS011;6085;49.452;8.502;2022-08-21T02:45:25;4.00;;;3.60;;
12048;SDS011;6085;49.452;8.502;2022-08-21T02:49:28;7.72;;;3.53;;
12048;SDS011;6085;49.452;8.502;2022-08-21T02:53:30;4.55;;;3.88;;
12048;SDS011;6085;49.452;8.502;2022-08-21T02:57:32;4.00;;;3.60;;
12048;SDS011;6085;49.452;8.502;2022-08-21T03:01:35;4.15;;;3.50;;
12048;SDS011;6085;49.452;8.502;2022-08-21T03:05:37;5.15;;;3.45;;
12048;SDS011;6085;49.452;8.502;2022-08-21T03:09:39;4.30;;;3.70;;
12048;SDS011;6085;49.452;8.502;2022-08-21T03:13:41;4.30;;;3.72;;
12048;SDS011;6085;49.452;8.502;2022-08-21T03:17:45;4.72;;;3.42;;
12048;SDS011;6085;49.452;8.502;2022-08-21T03:21:47;5.15;;;3.50;;
12048;SDS011;6085;49.452;8.502;2022-08-21T03:25:49;4.55;;;3.83;;
12048;SDS011;6085;49.452;8.502;2022-08-21T03:29:51;4.45;;;4.00;;
12048;SDS011;6085;49.452;8.502;2022-08-21T03:33:54;4.35;;;3.80;;
12048;SDS011;6085;49.452;8.502;2022-08-21T03:37:56;4.78;;;3.85;;
12048;SDS011;6085;49.452;8.502;2022-08-21T03:41:58;4.88;;;3.65;;
12048;SDS011;6085;49.452;8.502;2022-08-21T03:46:01;5.50;;;4.13;;
12048;SDS011;6085;49.452;8.502;2022-08-21T03:50:06;4.80;;;3.88;;
12048;SDS011;6085;49.452;8.502;2022-08-21T03:54:08;5.03;;;4.15;;
12048;SDS011;6085;49.452;8.502;2022-08-21T03:58:10;6.15;;;3.95;;
12048;SDS011;6085;49.452;8.502;2022-08-21T04:02:12;4.28;;;3.88;;
12048;SDS011;6085;49.452;8.502;2022-08-21T04:06:19;4.63;;;4.20;;
12048;SDS011;6085;49.452;8.502;2022-08-21T04:10:20;4.72;;;4.25;;
12048;SDS011;6085;49.452;8.502;2022-08-21T04:14:23;6.80;;;4.15;;
12048;SDS011;6085;49.452;8.502;2022-08-21T04:18:25;4.40;;;4.00;;
12048;SDS011;6085;49.452;8.502;2022-08-21T04:22:28;5.18;;;4.30;;
12048;SDS011;6085;49.452;8.502;2022-08-21T04:26:30;5.45;;;4.18;;
12048;SDS011;6085;49.452;8.502;2022-08-21T04:30:33;6.22;;;4.50;;
12048;SDS011;6085;49.452;8.502;2022-08-21T04:34:35;5.50;;;4.07;;
12048;SDS011;6085;49.452;8.502;2022-08-21T04:38:38;4.43;;;4.00;;
12048;SDS011;6085;49.452;8.502;2022-08-21T04:42:41;6.05;;;3.78;;
12048;SDS011;6085;49.452;8.502;2022-08-21T04:46:45;5.82;;;4.35;;
12048;SDS011;6085;49.452;8.502;2022-08-21T04:50:48;4.85;;;3.92;;
12048;SDS011;6085;49.452;8.502;2022-08-21T04:54:54;4.70;;;3.88;;
12048;SDS011;6085;49.452;8.502;2022-08-21T04:58:57;6.15;;;3.85;;
12048;SDS011;6085;49.452;8.502;2022-08-21T05:03:03;4.32;;;3.88;;
12048;SDS011;6085;49.452;8.502;2022-08-21T05:07:10;5.35;;;4.10;;
12048;SDS011;6085;49.452;8.502;2022-08-21T05:11:16;6.47;;;4.10;;
12048;SDS011;6085;49.452;8.502;2022-08-21T05:15:18;4.18;;;3.75;;
12048;SDS011;6085;49.452;8.502;2022-08-21T05:19:20;4.97;;;3.63;;
12048;SDS011;6085;49.452;8.502;2022-08-21T05:23:23;7.32;;;4.20;;
12048;SDS011;6085;49.452;8.502;2022-08-21T05:27:26;5.15;;;4.05;;
12048;SDS011;6085;49.452;8.502;2022-08-21T05:31:29;6.93;;;3.95;;
12048;SDS011;6085;49.452;8.502;2022-08-21T05:35:31;4.20;;;3.72;;
12048;SDS011;6085;49.452;8.502;2022-08-21T05:39:33;5.82;;;4.03;;
12048;SDS011;6085;49.452;8.502;2022-08-21T05:43:37;4.93;;;4.28;;
12048;SDS011;6085;49.452;8.502;2022-08-21T05:47:38;5.18;;;4.03;;
12048;SDS011;6085;49.452;8.502;2022-08-21T05:51:41;8.75;;;4.18;;
12048;SDS011;6085;49.452;8.502;2022-08-21T05:55:43;5.63;;;3.90;;
12048;SDS011;6085;49.452;8.502;2022-08-21T05:59:47;6.25;;;3.97;;
12048;SDS011;6085;49.452;8.502;2022-08-21T06:03:49;5.35;;;4.50;;
12048;SDS011;6085;49.452;8.502;2022-08-21T06:07:51;5.05;;;3.90;;
12048;SDS011;6085;49.452;8.502;2022-08-21T06:11:53;5.63;;;4.65;;
12048;SDS011;6085;49.452;8.502;2022-08-21T06:16:02;6.15;;;4.57;;
12048;SDS011;6085;49.452;8.502;2022-08-21T06:20:06;7.57;;;4.70;;
12048;SDS011;6085;49.452;8.502;2022-08-21T06:24:09;6.82;;;4.57;;
12048;SDS011;6085;49.452;8.502;2022-08-21T06:28:11;7.15;;;5.65;;
12048;SDS011;6085;49.452;8.502;2022-08-21T06:32:14;5.75;;;4.20;;
12048;SDS011;6085;49.452;8.502;2022-08-21T06:36:16;4.82;;;4.20;;
12048;SDS011;6085;49.452;8.502;2022-08-21T06:40:19;5.72;;;4.20;;
12048;SDS011;6085;49.452;8.502;2022-08-21T06:44:21;5.72;;;3.40;;
12048;SDS011;6085;49.452;8.502;2022-08-21T06:48:24;3.85;;;3.03;;
12048;SDS011;6085;49.452;8.502;2022-08-21T06:52:27;4.65;;;3.00;;
12048;SDS011;6085;49.452;8.502;2022-08-21T06:56:29;6.47;;;2.92;;
12048;SDS011;6085;49.452;8.502;2022-08-21T07:00:31;4.43;;;2.67;;
12048;SDS011;6085;49.452;8.502;2022-08-21T07:04:37;6.25;;;3.28;;
12048;SDS011;6085;49.452;8.502;2022-08-21T07:08:39;4.82;;;2.92;;
12048;SDS011;6085;49.452;8.502;2022-08-21T07:12:41;3.78;;;2.63;;
12048;SDS011;6085;49.452;8.502;2022-08-21T07:16:43;5.38;;;3.65;;
12048;SDS011;6085;49.452;8.502;2022-08-21T07:20:46;5.13;;;3.33;;
12048;SDS011;6085;49.452;8.502;2022-08-21T07:24:49;3.65;;;3.00;;
12048;SDS011;6085;49.452;8.502;2022-08-21T07:28:51;6.18;;;3.33;;
12048;SDS011;6085;49.452;8.502;2022-08-21T07:32:53;5.88;;;3.33;;
12048;SDS011;6085;49.452;8.502;2022-08-21T07:36:57;4.15;;;3.25;;
12048;SDS011;6085;49.452;8.502;2022-08-21T07:41:04;7.18;;;3.30;;
12048;SDS011;6085;49.452;8.502;2022-08-21T07:45:12;6.10;;;3.42;;
12048;SDS011;6085;49.452;8.502;2022-08-21T07:49:15;4.50;;;3.53;;
12048;SDS011;6085;49.452;8.502;2022-08-21T07:53:18;5.38;;;3.05;;
12048;SDS011;6085;49.452;8.502;2022-08-21T07:57:20;3.90;;;3.10;;
12048;SDS011;6085;49.452;8.502;2022-08-21T08:01:23;5.25;;;3.22;;
12048;SDS011;6085;49.452;8.502;2022-08-21T08:05:27;4.88;;;2.95;;
12048;SDS011;6085;49.452;8.502;2022-08-21T08:09:32;8.70;;;3.22;;
12048;SDS011;6085;49.452;8.502;2022-08-21T08:13:37;4.22;;;3.20;;
12048;SDS011;6085;49.452;8.502;2022-08-21T08:17:40;3.35;;;2.70;;
12048;SDS011;6085;49.452;8.502;2022-08-21T08:21:42;7.43;;;3.20;;
12048;SDS011;6085;49.452;8.502;2022-08-21T08:25:45;4.82;;;3.03;;
12048;SDS011;6085;49.452;8.502;2022-08-21T08:29:48;6.07;;;3.80;;
12048;SDS011;6085;49.452;8.502;2022-08-21T08:33:50;5.72;;;3.20;;
12048;SDS011;6085;49.452;8.502;2022-08-21T08:37:52;5.57;;;3.30;;
12048;SDS011;6085;49.452;8.502;2022-08-21T08:41:58;4.80;;;3.38;;
12048;SDS011;6085;49.452;8.502;2022-08-21T08:46:08;5.55;;;3.15;;
12048;SDS011;6085;49.452;8.502;2022-08-21T08:50:17;5.65;;;3.65;;
12048;SDS011;6085;49.452;8.502;2022-08-21T08:54:24;4.80;;;3.33;;
12048;SDS011;6085;49.452;8.502;2022-08-21T08:58:33;5.18;;;3.15;;
12048;SDS011;6085;49.452;8.502;2022-08-21T09:02:39;3.22;;;2.70;;
12048;SDS011;6085;49.452;8.502;2022-08-21T09:06:44;6.40;;;3.33;;
12048;SDS011;6085;49.452;8.502;2022-08-21T09:10:57;3.95;;;3.20;;
12048;SDS011;6085;49.452;8.502;2022-08-21T09:15:06;4.15;;;3.38;;
12048;SDS011;6085;49.452;8.502;2022-08-21T09:19:23;5.47;;;4.10;;
12048;SDS011;6085;49.452;8.502;2022-08-21T09:23:40;5.18;;;3.80;;
12048;SDS011;6085;49.452;8.502;2022-08-21T09:27:49;6.05;;;3.40;;
12048;SDS011;6085;49.452;8.502;2022-08-21T09:31:52;6.18;;;3.38;;
12048;SDS011;6085;49.452;8.502;2022-08-21T09:35:54;5.10;;;3.60;;
12048;SDS011;6085;49.452;8.502;2022-08-21T09:39:58;4.53;;;2.97;;
12048;SDS011;6085;49.452;8.502;2022-08-21T09:44:00;3.38;;;3.00;;
12048;SDS011;6085;49.452;8.502;2022-08-21T09:48:14;5.60;;;3.10;;
12048;SDS011;6085;49.452;8.502;2022-08-21T09:52:20;5.38;;;2.80;;
12048;SDS011;6085;49.452;8.502;2022-08-21T09:56:26;4.40;;;2.97;;
12048;SDS011;6085;49.452;8.502;2022-08-21T10:00:56;4.63;;;2.88;;
12048;SDS011;6085;49.452;8.502;2022-08-21T10:05:01;4.60;;;2.50;;
12048;SDS011;6085;49.452;8.502;2022-08-21T10:09:05;4.88;;;2.58;;
12048;SDS011;6085;49.452;8.502;2022-08-21T10:13:09;4.97;;;3.15;;
12048;SDS011;6085;49.452;8.502;2022-08-21T10:17:20;4.05;;;2.97;;
12048;SDS011;6085;49.452;8.502;2022-08-21T10:21:30;5.80;;;3.10;;
12048;SDS011;6085;49.452;8.502;2022-08-21T10:25:38;4.07;;;2.20;;
12048;SDS011;6085;49.452;8.502;2022-08-21T10:29:47;4.30;;;2.08;;
12048;SDS011;6085;49.452;8.502;2022-08-21T10:33:56;3.85;;;2.30;;
12048;SDS011;6085;49.452;8.502;2022-08-21T10:38:31;5.15;;;3.13;;
12048;SDS011;6085;49.452;8.502;2022-08-21T10:42:50;4.47;;;2.60;;
12048;SDS011;6085;49.452;8.502;2022-08-21T10:47:04;5.43;;;2.90;;
12048;SDS011;6085;49.452;8.502;2022-08-21T10:51:10;3.95;;;2.50;;
12048;SDS011;6085;49.452;8.502;2022-08-21T10:55:19;4.70;;;2.53;;
12048;SDS011;6085;49.452;8.502;2022-08-21T10:59:24;5.93;;;2.90;;
12048;SDS011;6085;49.452;8.502;2022-08-21T11:03:31;4.45;;;2.50;;
12048;SDS011;6085;49.452;8.502;2022-08-21T11:07:38;4.30;;;2.90;;
12048;SDS011;6085;49.452;8.502;2022-08-21T11:11:49;6.15;;;2.65;;
12048;SDS011;6085;49.452;8.502;2022-08-21T11:15:56;2.58;;;2.20;;
12048;SDS011;6085;49.452;8.502;2022-08-21T11:20:07;8.18;;;2.78;;
12048;SDS011;6085;49.452;8.502;2022-08-21T11:24:19;5.53;;;2.30;;
12048;SDS011;6085;49.452;8.502;2022-08-21T11:28:33;4.20;;;2.60;;
12048;SDS011;6085;49.452;8.502;2022-08-21T11:32:44;6.43;;;2.60;;
12048;SDS011;6085;49.452;8.502;2022-08-21T11:36:54;3.92;;;2.30;;
12048;SDS011;6085;49.452;8.502;2022-08-21T11:45:26;4.85;;;2.70;;
12048;SDS011;6085;49.452;8.502;2022-08-21T11:49:40;5.53;;;2.72;;
12048;SDS011;6085;49.452;8.502;2022-08-21T11:53:52;3.20;;;1.92;;
12048;SDS011;6085;49.452;8.502;2022-08-21T11:58:02;5.47;;;3.00;;
12048;SDS011;6085;49.452;8.502;2022-08-21T12:02:11;4.68;;;2.58;;
12048;SDS011;6085;49.452;8.502;2022-08-21T12:06:15;3.95;;;2.63;;
12048;SDS011;6085;49.452;8.502;2022-08-21T12:10:32;3.90;;;2.35;;
12048;SDS011;6085;49.452;8.502;2022-08-21T12:14:36;3.65;;;2.10;;
12048;SDS011;6085;49.452;8.502;2022-08-21T12:18:42;3.70;;;2.60;;
12048;SDS011;6085;49.452;8.502;2022-08-21T12:22:47;4.15;;;2.40;;
12048;SDS011;6085;49.452;8.502;2022-08-21T12:26:54;2.92;;;2.42;;
12048;SDS011;6085;49.452;8.502;2022-08-21T12:30:57;3.83;;;2.40;;
12048;SDS011;6085;49.452;8.502;2022-08-21T12:35:14;4.28;;;2.30;;
12048;SDS011;6085;49.452;8.502;2022-08-21T12:39:20;3.20;;;2.30;;
12048;SDS011;6085;49.452;8.502;2022-08-21T12:43:26;4.72;;;2.47;;
12048;SDS011;6085;49.452;8.502;2022-08-21T12:47:33;3.67;;;2.67;;
12048;SDS011;6085;49.452;8.502;2022-08-21T12:51:50;3.70;;;2.22;;
12048;SDS011;6085;49.452;8.502;2022-08-21T12:55:56;2.95;;;2.17;;
12048;SDS011;6085;49.452;8.502;2022-08-21T13:00:05;4.07;;;2.35;;
12048;SDS011;6085;49.452;8.502;2022-08-21T13:04:11;4.75;;;2.72;;
12048;SDS011;6085;49.452;8.502;2022-08-21T13:08:18;3.78;;;2.30;;
12048;SDS011;6085;49.452;8.502;2022-08-21T13:12:23;3.30;;;2.30;;
12048;SDS011;6085;49.452;8.502;2022-08-21T13:16:27;3.38;;;2.63;;
12048;SDS011;6085;49.452;8.502;2022-08-21T13:20:30;3.35;;;2.60;;
12048;SDS011;6085;49.452;8.502;2022-08-21T13:24:36;3.35;;;2.40;;
12048;SDS011;6085;49.452;8.502;2022-08-21T13:28:39;2.45;;;2.22;;
12048;SDS011;6085;49.452;8.502;2022-08-21T13:32:44;3.28;;;2.67;;
12048;SDS011;6085;49.452;8.502;2022-08-21T13:36:50;3.08;;;2.25;;
12048;SDS011;6085;49.452;8.502;2022-08-21T13:40:56;3.72;;;2.22;;
12048;SDS011;6085;49.452;8.502;2022-08-21T13:45:00;3.92;;;2.17;;
12048;SDS011;6085;49.452;8.502;2022-08-21T13:49:02;3.33;;;2.22;;
12048;SDS011;6085;49.452;8.502;2022-08-21T13:53:07;4.60;;;2.38;;
12048;SDS011;6085;49.452;8.502;2022-08-21T13:57:26;2.40;;;2.08;;
12048;SDS011;6085;49.452;8.502;2022-08-21T14:01:31;3.03;;;2.45;;
12048;SDS011;6085;49.452;8.502;2022-08-21T14:05:36;4.50;;;2.55;;
12048;SDS011;6085;49.452;8.502;2022-08-21T14:09:44;3.72;;;2.47;;
12048;SDS011;6085;49.452;8.502;2022-08-21T14:13:49;4.20;;;2.50;;
12048;SDS011;6085;49.452;8.502;2022-08-21T14:18:06;3.33;;;2.45;;
12048;SDS011;6085;49.452;8.502;2022-08-21T14:22:31;2.58;;;2.38;;
12048;SDS011;6085;49.452;8.502;2022-08-21T14:26:43;3.22;;;2.10;;
12048;SDS011;6085;49.452;8.502;2022-08-21T14:30:48;3.97;;;2.50;;
12048;SDS011;6085;49.452;8.502;2022-08-21T14:34:50;4.18;;;2.40;;
12048;SDS011;6085;49.452;8.502;2022-08-21T14:38:53;3.78;;;2.17;;
12048;SDS011;6085;49.452;8.502;2022-08-21T14:42:55;4.05;;;2.33;;
12048;SDS011;6085;49.452;8.502;2022-08-21T14:46:59;4.47;;;2.50;;
12048;SDS011;6085;49.452;8.502;2022-08-21T14:51:01;3.38;;;2.40;;
12048;SDS011;6085;49.452;8.502;2022-08-21T14:55:03;3.63;;;2.25;;
12048;SDS011;6085;49.452;8.502;2022-08-21T14:59:06;3.75;;;2.33;;
12048;SDS011;6085;49.452;8.502;2022-08-21T15:03:11;2.42;;;2.22;;
12048;SDS011;6085;49.452;8.502;2022-08-21T15:07:13;4.28;;;1.80;;
12048;SDS011;6085;49.452;8.502;2022-08-21T15:11:16;2.90;;;2.10;;
12048;SDS011;6085;49.452;8.502;2022-08-21T15:15:20;2.63;;;2.10;;
12048;SDS011;6085;49.452;8.502;2022-08-21T15:19:23;3.58;;;2.28;;
12048;SDS011;6085;49.452;8.502;2022-08-21T15:23:26;3.58;;;2.42;;
12048;SDS011;6085;49.452;8.502;2022-08-21T15:27:28;3.03;;;2.20;;
12048;SDS011;6085;49.452;8.502;2022-08-21T15:31:31;3.05;;;2.22;;
12048;SDS011;6085;49.452;8.502;2022-08-21T15:35:34;3.35;;;2.03;;
12048;SDS011;6085;49.452;8.502;2022-08-21T15:39:36;3.28;;;2.33;;
12048;SDS011;6085;49.452;8.502;2022-08-21T15:43:45;2.47;;;2.00;;
12048;SDS011;6085;49.452;8.502;2022-08-21T15:47:50;4.88;;;2.80;;
12048;SDS011;6085;49.452;8.502;2022-08-21T15:51:54;2.22;;;2.00;;
12048;SDS011;6085;49.452;8.502;2022-08-21T15:55:55;31.95;;;5.93;;
12048;SDS011;6085;49.452;8.502;2022-08-21T15:59:58;4.40;;;2.40;;
12048;SDS011;6085;49.452;8.502;2022-08-21T16:04:08;5.18;;;2.58;;
12048;SDS011;6085;49.452;8.502;2022-08-21T16:08:12;2.30;;;1.98;;
12048;SDS011;6085;49.452;8.502;2022-08-21T16:12:15;3.45;;;2.30;;
12048;SDS011;6085;49.452;8.502;2022-08-21T16:16:21;3.95;;;2.03;;
12048;SDS011;6085;49.452;8.502;2022-08-21T16:20:26;2.78;;;2.08;;
12048;SDS011;6085;49.452;8.502;2022-08-21T16:24:30;2.63;;;2.40;;
12048;SDS011;6085;49.452;8.502;2022-08-21T16:28:36;4.20;;;2.00;;
12048;SDS011;6085;49.452;8.502;2022-08-21T16:32:40;3.95;;;2.40;;
12048;SDS011;6085;49.452;8.502;2022-08-21T16:36:43;2.90;;;2.22;;
12048;SDS011;6085;49.452;8.502;2022-08-21T16:40:46;4.63;;;2.20;;
12048;SDS011;6085;49.452;8.502;2022-08-21T16:44:48;3.42;;;2.03;;
12048;SDS011;6085;49.452;8.502;2022-08-21T16:48:50;3.00;;;2.10;;
12048;SDS011;6085;49.452;8.502;2022-08-21T16:52:52;3.33;;;2.30;;
12048;SDS011;6085;49.452;8.502;2022-08-21T16:56:55;3.00;;;2.22;;
12048;SDS011;6085;49.452;8.502;2022-08-21T17:00:58;3.70;;;2.28;;
12048;SDS011;6085;49.452;8.502;2022-08-21T17:05:00;2.40;;;2.00;;
12048;SDS011;6085;49.452;8.502;2022-08-21T17:09:04;3.75;;;2.05;;
12048;SDS011;6085;49.452;8.502;2022-08-21T17:13:07;2.20;;;2.00;;
12048;SDS011;6085;49.452;8.502;2022-08-21T17:17:09;4.85;;;2.33;;
12048;SDS011;6085;49.452;8.502;2022-08-21T17:21:12;2.40;;;2.15;;
12048;SDS011;6085;49.452;8.502;2022-08-21T17:25:14;3.08;;;2.47;;
12048;SDS011;6085;49.452;8.502;2022-08-21T17:29:17;2.70;;;2.08;;
12048;SDS011;6085;49.452;8.502;2022-08-21T17:33:24;3.60;;;2.30;;
12048;SDS011;6085;49.452;8.502;2022-08-21T17:37:29;2.17;;;1.95;;
12048;SDS011;6085;49.452;8.502;2022-08-21T17:41:31;3.30;;;2.58;;
12048;SDS011;6085;49.452;8.502;2022-08-21T17:45:35;2.97;;;2.22;;
12048;SDS011;6085;49.452;8.502;2022-08-21T17:49:37;2.80;;;2.22;;
12048;SDS011;6085;49.452;8.502;2022-08-21T17:53:39;3.00;;;2.33;;
12048;SDS011;6085;49.452;8.502;2022-08-21T17:57:41;4.43;;;2.90;;
12048;SDS011;6085;49.452;8.502;2022-08-21T18:01:46;3.63;;;2.92;;
12048;SDS011;6085;49.452;8.502;2022-08-21T18:05:49;4.45;;;2.55;;
12048;SDS011;6085;49.452;8.502;2022-08-21T18:09:52;3.13;;;2.20;;
12048;SDS011;6085;49.452;8.502;2022-08-21T18:13:54;4.10;;;2.20;;
12048;SDS011;6085;49.452;8.502;2022-08-21T18:18:01;3.78;;;2.30;;
12048;SDS011;6085;49.452;8.502;2022-08-21T18:22:03;3.22;;;2.10;;
12048;SDS011;6085;49.452;8.502;2022-08-21T18:26:07;3.30;;;2.10;;
12048;SDS011;6085;49.452;8.502;2022-08-21T18:30:10;3.08;;;2.00;;
12048;SDS011;6085;49.452;8.502;2022-08-21T18:34:19;2.72;;;1.92;;
12048;SDS011;6085;49.452;8.502;2022-08-21T18:38:24;5.50;;;2.42;;
12048;SDS011;6085;49.452;8.502;2022-08-21T18:42:27;4.13;;;2.20;;
12048;SDS011;6085;49.452;8.502;2022-08-21T18:46:35;2.70;;;2.50;;
12048;SDS011;6085;49.452;8.502;2022-08-21T18:50:39;3.08;;;2.40;;
12048;SDS011;6085;49.452;8.502;2022-08-21T18:54:43;2.75;;;2.22;;
12048;SDS011;6085;49.452;8.502;2022-08-21T18:58:44;2.60;;;2.10;;
12048;SDS011;6085;49.452;8.502;2022-08-21T19:02:47;3.78;;;2.03;;
12048;SDS011;6085;49.452;8.502;2022-08-21T19:06:50;2.75;;;2.30;;
12048;SDS011;6085;49.452;8.502;2022-08-21T19:10:53;4.28;;;2.20;;
12048;SDS011;6085;49.452;8.502;2022-08-21T19:15:00;3.35;;;2.25;;
12048;SDS011;6085;49.452;8.502;2022-08-21T19:19:02;4.55;;;2.50;;
12048;SDS011;6085;49.452;8.502;2022-08-21T19:23:06;2.70;;;2.30;;
12048;SDS011;6085;49.452;8.502;2022-08-21T19:27:10;2.45;;;1.98;;
12048;SDS011;6085;49.452;8.502;2022-08-21T19:31:14;3.20;;;2.58;;
12048;SDS011;6085;49.452;8.502;2022-08-21T19:35:18;3.30;;;2.35;;
12048;SDS011;6085;49.452;8.502;2022-08-21T19:39:21;2.70;;;2.38;;
12048;SDS011;6085;49.452;8.502;2022-08-21T19:43:24;2.83;;;2.25;;
12048;SDS011;6085;49.452;8.502;2022-08-21T19:47:26;5.00;;;2.70;;
12048;SDS011;6085;49.452;8.502;2022-08-21T19:51:30;2.83;;;2.50;;
12048;SDS011;6085;49.452;8.502;2022-08-21T19:55:35;3.08;;;2.60;;
12048;SDS011;6085;49.452;8.502;2022-08-21T19:59:38;5.38;;;2.58;;
12048;SDS011;6085;49.452;8.502;2022-08-21T20:03:41;3.92;;;2.60;;
12048;SDS011;6085;49.452;8.502;2022-08-21T20:07:43;3.08;;;2.60;;
12048;SDS011;6085;49.452;8.502;2022-08-21T20:11:47;3.90;;;2.38;;
12048;SDS011;6085;49.452;8.502;2022-08-21T20:15:52;3.05;;;2.17;;
12048;SDS011;6085;49.452;8.502;2022-08-21T20:19:54;3.28;;;2.03;;
12048;SDS011;6085;49.452;8.502;2022-08-21T20:23:56;3.33;;;2.53;;
12048;SDS011;6085;49.452;8.502;2022-08-21T20:28:00;4.65;;;2.90;;
12048;SDS011;6085;49.452;8.502;2022-08-21T20:32:04;3.72;;;2.53;;
12048;SDS011;6085;49.452;8.502;2022-08-21T20:36:07;3.03;;;2.50;;
12048;SDS011;6085;49.452;8.502;2022-08-21T20:40:09;2.78;;;2.35;;
12048;SDS011;6085;49.452;8.502;2022-08-21T20:44:15;3.08;;;2.65;;
12048;SDS011;6085;49.452;8.502;2022-08-21T20:48:19;5.35;;;2.97;;
12048;SDS011;6085;49.452;8.502;2022-08-21T20:52:24;3.03;;;2.25;;
12048;SDS011;6085;49.452;8.502;2022-08-21T20:56:31;2.97;;;2.40;;
12048;SDS011;6085;49.452;8.502;2022-08-21T21:00:40;2.85;;;2.40;;
12048;SDS011;6085;49.452;8.502;2022-08-21T21:04:44;2.40;;;2.17;;
12048;SDS011;6085;49.452;8.502;2022-08-21T21:08:51;3.53;;;2.80;;
12048;SDS011;6085;49.452;8.502;2022-08-21T21:13:00;2.92;;;2.28;;
12048;SDS011;6085;49.452;8.502;2022-08-21T21:17:11;3.53;;;2.38;;
12048;SDS011;6085;49.452;8.502;2022-08-21T21:21:17;3.03;;;2.70;;
12048;SDS011;6085;49.452;8.502;2022-08-21T21:25:30;3.15;;;2.30;;
12048;SDS011;6085;49.452;8.502;2022-08-21T21:29:38;4.35;;;2.50;;
12048;SDS011;6085;49.452;8.502;2022-08-21T21:33:45;4.13;;;3.25;;
12048;SDS011;6085;49.452;8.502;2022-08-21T21:37:50;6.57;;;4.60;;
12048;SDS011;6085;49.452;8.502;2022-08-21T21:41:56;4.10;;;3.70;;
12048;SDS011;6085;49.452;8.502;2022-08-21T21:46:14;3.40;;;3.05;;
12048;SDS011;6085;49.452;8.502;2022-08-21T21:50:29;3.35;;;2.50;;
12048;SDS011;6085;49.452;8.502;2022-08-21T21:59:18;2.97;;;2.58;;
12048;SDS011;6085;49.452;8.502;2022-08-21T22:03:32;4.93;;;2.92;;
12048;SDS011;6085;49.452;8.502;2022-08-21T22:07:46;3.58;;;2.67;;
12048;SDS011;6085;49.452;8.502;2022-08-21T22:11:57;3.85;;;2.80;;
12048;SDS011;6085;49.452;8.502;2022-08-21T22:16:03;4.28;;;3.03;;
12048;SDS011;6085;49.452;8.502;2022-08-21T22:20:09;4.22;;;2.78;;
12048;SDS011;6085;49.452;8.502;2022-08-21T22:24:20;5.10;;;2.90;;
12048;SDS011;6085;49.452;8.502;2022-08-21T22:28:26;3.80;;;2.55;;
12048;SDS011;6085;49.452;8.502;2022-08-21T22:32:35;3.50;;;2.70;;
12048;SDS011;6085;49.452;8.502;2022-08-21T22:36:40;2.65;;;2.45;;
12048;SDS011;6085;49.452;8.502;2022-08-21T22:40:44;3.42;;;2.83;;
12048;SDS011;6085;49.452;8.502;2022-08-21T22:44:47;2.72;;;2.53;;
12048;SDS011;6085;49.452;8.502;2022-08-21T22:48:52;3.67;;;2.63;;
12048;SDS011;6085;49.452;8.502;2022-08-21T22:52:57;4.82;;;3.00;;
12048;SDS011;6085;49.452;8.502;2022-08-21T22:57:04;5.00;;;2.75;;
12048;SDS011;6085;49.452;8.502;2022-08-21T23:01:11;3.40;;;2.63;;
12048;SDS011;6085;49.452;8.502;2022-08-21T23:05:33;3.35;;;2.70;;
12048;SDS011;6085;49.452;8.502;2022-08-21T23:09:40;3.63;;;2.83;;
12048;SDS011;6085;49.452;8.502;2022-08-21T23:13:49;3.65;;;2.67;;
12048;SDS011;6085;49.452;8.502;2022-08-21T23:17:53;3.92;;;2.40;;
12048;SDS011;6085;49.452;8.502;2022-08-21T23:22:20;4.53;;;2.90;;
12048;SDS011;6085;49.452;8.502;2022-08-21T23:26:33;3.13;;;2.47;;
12048;SDS011;6085;49.452;8.502;2022-08-21T23:30:44;2.72;;;2.33;;
12048;SDS011;6085;49.452;8.502;2022-08-21T23:35:06;3.85;;;2.40;;
12048;SDS011;6085;49.452;8.502;2022-08-21T23:39:19;2.70;;;2.50;;
12048;SDS011;6085;49.452;8.502;2022-08-21T23:43:36;4.35;;;2.47;;
12048;SDS011;6085;49.452;8.502;2022-08-21T23:47:50;4.70;;;2.17;;
12048;SDS011;6085;49.452;8.502;2022-08-21T23:52:02;3.10;;;2.50;;
12048;SDS011;6085;49.452;8.502;2022-08-21T23:56:15;3.55;;;2.90;;
